createdAt,value
2023-04-01T06:31:29.782Z,77.01
2023-04-01T06:31:40.843Z,76.90
2023-04-01T06:31:51.098Z,76.60
2023-04-01T06:32:01.129Z,76.50
2023-04-01T06:32:11.355Z,76.70
2023-04-01T06:32:21.419Z,77.55
2023-04-01T06:32:31.500Z,78.26
2023-04-01T06:32:41.556Z,78.66
2023-04-01T06:32:51.783Z,79.17
2023-04-01T06:33:01.804Z,79.58
2023-04-01T06:33:11.913Z,79.47
2023-04-01T06:33:22.014Z,79.61
2023-04-01T06:33:32.097Z,79.72
2023-04-01T06:33:42.256Z,80.02
2023-04-01T06:33:52.462Z,80.12
2023-04-01T06:34:02.473Z,79.82
2023-04-01T06:34:12.596Z,79.51
2023-04-01T06:34:22.856Z,79.31
2023-04-01T06:34:33.033Z,79.14
2023-04-01T06:34:43.064Z,79.35
2023-04-01T06:34:53.259Z,79.45
2023-04-01T06:35:03.350Z,79.75
2023-04-01T06:35:13.361Z,80.06
2023-04-01T06:35:23.485Z,80.26
2023-04-01T06:35:33.754Z,80.43
2023-04-01T06:35:43.868Z,80.66
2023-04-01T06:35:54.047Z,80.46
2023-04-01T06:36:04.164Z,80.26
2023-04-01T06:36:14.348Z,80.26
2023-04-01T06:36:24.380Z,80.57
2023-04-01T06:36:34.488Z,80.57
2023-04-01T06:36:44.509Z,80.46
2023-04-01T06:36:54.634Z,80.36
2023-04-01T06:37:04.752Z,80.26
2023-04-01T06:37:14.805Z,80.36
2023-04-01T06:37:24.937Z,80.43
2023-04-01T06:37:35.117Z,80.32
2023-04-01T06:37:45.180Z,80.22
2023-04-01T06:37:55.557Z,79.92
2023-04-01T06:38:05.514Z,79.07
2023-04-01T06:38:15.531Z,78.02
2023-04-01T06:38:25.586Z,77.82
2023-04-01T06:38:35.712Z,77.41
2023-04-01T06:38:45.815Z,77.51
2023-04-01T06:38:56.019Z,77.92
2023-04-01T06:39:06.072Z,77.72
2023-04-01T06:39:16.099Z,77.41
2023-04-01T06:39:26.315Z,77.31
2023-04-01T06:39:36.421Z,77.34
2023-04-01T06:39:46.435Z,77.86
2023-04-01T06:39:56.669Z,78.36
2023-04-01T06:40:06.728Z,78.46
2023-04-01T06:40:16.857Z,78.66
2023-04-01T06:40:27.005Z,78.66
2023-04-01T06:40:37.130Z,78.87
2023-04-01T06:40:47.272Z,79.07
2023-04-01T06:40:57.483Z,79.07
2023-04-01T06:41:07.518Z,78.97
2023-04-01T06:41:17.804Z,78.87
2023-04-01T06:41:27.723Z,78.77
2023-04-01T06:41:38.008Z,78.91
2023-04-01T06:41:47.986Z,78.91
2023-04-01T06:41:58.191Z,79.11
2023-04-01T06:42:08.321Z,79.31
2023-04-01T06:42:18.427Z,78.56
2023-04-01T06:42:28.526Z,77.86
2023-04-01T06:42:38.662Z,77.45
2023-04-01T06:42:48.866Z,77.55
2023-04-01T06:42:58.891Z,77.55
2023-04-01T06:43:08.960Z,77.25
2023-04-01T06:43:19.126Z,78.16
2023-04-01T06:43:29.199Z,78.77
2023-04-01T06:43:39.350Z,78.97
2023-04-01T06:43:49.374Z,78.97
2023-04-01T06:43:59.560Z,78.97
2023-04-01T06:44:09.637Z,78.97
2023-04-01T06:44:19.792Z,78.66
2023-04-01T06:44:29.926Z,78.33
2023-04-01T06:44:40.095Z,78.42
2023-04-01T06:44:50.154Z,78.63
2023-04-01T06:45:00.400Z,78.42
2023-04-01T06:45:10.520Z,78.83
2023-04-01T06:45:20.585Z,79.44
2023-04-01T06:45:30.729Z,79.44
2023-04-01T06:45:40.786Z,79.24
2023-04-01T06:45:50.931Z,79.44
2023-04-01T06:46:01.115Z,80.05
2023-04-01T06:46:11.237Z,79.74
2023-04-01T06:46:21.447Z,79.34
2023-04-01T06:46:31.475Z,78.83
2023-04-01T06:46:41.674Z,78.33
2023-04-01T06:46:51.597Z,77.51
2023-04-01T06:47:01.777Z,77.04
2023-04-01T06:47:11.892Z,77.01
2023-04-01T06:47:22.013Z,77.11
2023-04-01T06:47:32.181Z,76.60
2023-04-01T06:47:44.224Z,76.97
2023-04-01T06:47:52.324Z,75.96
2023-04-01T06:48:02.651Z,75.62
2023-04-01T06:48:12.683Z,75.42
2023-04-01T06:48:22.722Z,74.30
2023-04-01T06:48:32.838Z,73.96
2023-04-01T06:48:43.166Z,73.96
2023-04-01T06:48:53.079Z,74.43
2023-04-01T06:49:03.250Z,74.03
2023-04-01T06:49:13.270Z,73.52
2023-04-01T06:49:23.529Z,73.90
2023-04-01T06:49:33.571Z,74.30
2023-04-01T06:49:43.746Z,74.30
2023-04-01T06:49:53.826Z,73.79
2023-04-01T06:50:03.966Z,73.39
2023-04-01T06:50:13.993Z,73.28
2023-04-01T06:50:24.374Z,72.85
2023-04-01T06:50:34.232Z,72.64
2023-04-01T06:50:44.429Z,72.95
2023-04-01T06:50:54.665Z,73.39
2023-04-01T06:51:04.705Z,73.90
2023-04-01T06:51:15.040Z,74.50
2023-04-01T06:51:24.891Z,74.80
2023-04-01T06:51:35.014Z,75.21
2023-04-01T06:51:45.138Z,75.21
2023-04-01T06:51:55.155Z,75.41
2023-04-01T06:52:05.281Z,75.71
2023-04-01T06:52:15.507Z,75.95
2023-04-01T06:52:25.553Z,76.15
2023-04-01T06:52:35.728Z,75.85
2023-04-01T06:52:45.857Z,75.14
2023-04-01T06:52:56.203Z,74.94
2023-04-01T06:53:06.104Z,74.84
2023-04-01T06:53:16.169Z,74.94
2023-04-01T06:53:27.343Z,74.43
2023-04-01T06:53:36.312Z,74.33
2023-04-01T06:53:46.512Z,74.54
2023-04-01T06:53:56.663Z,74.94
2023-04-01T06:54:06.841Z,75.34
2023-04-01T06:54:16.998Z,75.14
2023-04-01T06:54:37.722Z,74.33
2023-04-01T06:54:47.349Z,73.72
2023-04-01T06:54:57.449Z,73.72
2023-04-01T06:55:07.619Z,73.83
2023-04-01T06:55:17.779Z,74.23
2023-04-01T06:55:27.860Z,74.63
2023-04-01T06:55:37.945Z,74.74
2023-04-01T06:55:48.071Z,74.43
2023-04-01T06:55:58.242Z,73.63
2023-04-01T06:56:08.346Z,73.63
2023-04-01T06:56:18.513Z,73.43
2023-04-01T06:56:28.438Z,73.43
2023-04-01T06:56:38.636Z,74.13
2023-04-01T06:56:48.834Z,73.79
2023-04-01T06:56:58.840Z,73.12
2023-04-01T06:57:09.026Z,72.28
2023-04-01T06:57:19.163Z,72.21
2023-04-01T06:57:29.289Z,72.11
2023-04-01T06:57:39.378Z,71.70
2023-04-01T06:57:49.539Z,71.60
2023-04-01T06:57:59.670Z,71.70
2023-04-01T06:58:09.687Z,72.11
2023-04-01T06:58:19.892Z,72.01
2023-04-01T06:58:29.997Z,72.01
2023-04-01T06:58:40.111Z,72.21
2023-04-01T06:58:50.284Z,72.21
2023-04-01T06:59:00.464Z,72.11
2023-04-01T06:59:10.692Z,71.70
2023-04-01T06:59:20.713Z,71.60
2023-04-01T06:59:30.885Z,71.60
2023-04-01T06:59:40.864Z,71.60
2023-04-01T06:59:51.069Z,71.40
2023-04-01T07:00:01.191Z,71.30
2023-04-01T07:00:11.237Z,71.20
2023-04-01T07:00:21.326Z,71.20
2023-04-01T07:00:31.566Z,71.60
2023-04-01T07:00:41.619Z,71.70
2023-04-01T07:00:51.904Z,71.70
2023-04-01T07:01:01.817Z,71.53
2023-04-01T07:01:12.090Z,71.64
2023-04-01T07:01:22.194Z,71.64
2023-04-01T07:01:32.292Z,71.73
2023-04-01T07:01:42.576Z,71.33
2023-04-01T07:02:02.526Z,71.03
2023-04-01T07:02:08.523Z,71.26
2023-04-01T07:02:18.585Z,71.57
2023-04-01T07:02:28.796Z,71.57
2023-04-01T07:02:38.907Z,71.67
2023-04-01T07:02:49.093Z,71.53
2023-04-01T07:03:09.251Z,71.33
2023-04-01T07:03:19.451Z,70.89
2023-04-01T07:03:29.545Z,70.18
2023-04-01T07:03:39.995Z,69.89
2023-04-01T07:03:49.978Z,69.38
2023-04-01T07:04:00.087Z,69.04
2023-04-01T07:04:10.078Z,68.97
2023-04-01T07:04:20.224Z,69.07
2023-04-01T07:04:30.394Z,69.55
2023-04-01T07:04:40.697Z,69.85
2023-04-01T07:04:50.695Z,69.85
2023-04-01T07:05:00.774Z,70.05
2023-04-01T07:05:11.083Z,70.36
2023-04-01T07:05:21.113Z,70.15
2023-04-01T07:05:31.481Z,69.85
2023-04-01T07:05:41.303Z,69.45
2023-04-01T07:05:51.427Z,68.84
2023-04-01T07:06:01.678Z,68.74
2023-04-01T07:06:11.844Z,68.71
2023-04-01T07:06:21.736Z,68.60
2023-04-01T07:06:31.934Z,68.40
2023-04-01T07:06:42.105Z,68.10
2023-04-01T07:06:52.210Z,68.00
2023-04-01T07:07:02.332Z,68.00
2023-04-01T07:07:12.392Z,68.10
2023-04-01T07:07:22.526Z,68.60
2023-04-01T07:07:32.675Z,68.71
2023-04-01T07:07:42.876Z,68.10
2023-04-01T07:07:52.920Z,68.00
2023-04-01T07:08:02.946Z,68.10
2023-04-01T07:08:13.038Z,67.49
2023-04-01T07:08:23.281Z,67.29
2023-04-01T07:08:33.474Z,67.60
2023-04-01T07:08:43.542Z,67.60
2023-04-01T07:08:53.653Z,67.49
2023-04-01T07:09:05.874Z,67.52
2023-04-01T07:09:13.858Z,67.83
2023-04-01T07:09:23.917Z,68.33
2023-04-01T07:09:34.095Z,68.63
2023-04-01T07:09:44.130Z,68.33
2023-04-01T07:09:54.304Z,68.16
2023-04-01T07:10:04.316Z,68.16
2023-04-01T07:10:14.613Z,68.37
2023-04-01T07:10:24.613Z,68.57
2023-04-01T07:10:34.871Z,68.77
2023-04-01T07:10:44.844Z,68.80
2023-04-01T07:10:55.200Z,69.01
2023-04-01T07:11:05.207Z,69.10
2023-04-01T07:11:15.256Z,69.41
2023-04-01T07:11:25.314Z,69.71
2023-04-01T07:11:35.503Z,69.81
2023-04-01T07:11:45.575Z,69.61
2023-04-01T07:11:55.895Z,69.51
2023-04-01T07:12:06.033Z,69.54
2023-04-01T07:12:15.947Z,69.74
2023-04-01T07:12:26.120Z,69.95
2023-04-01T07:12:36.213Z,70.05
2023-04-01T07:12:46.284Z,69.95
2023-04-01T07:12:56.412Z,69.85
2023-04-01T07:13:06.498Z,69.85
2023-04-01T07:13:16.682Z,69.95
2023-04-01T07:13:26.668Z,70.15
2023-04-01T07:13:36.865Z,70.25
2023-04-01T07:13:46.929Z,70.36
2023-04-01T07:13:57.101Z,70.36
2023-04-01T07:14:07.157Z,70.08
2023-04-01T07:14:17.277Z,70.08
2023-04-01T07:14:27.470Z,69.88
2023-04-01T07:14:37.693Z,69.48
2023-04-01T07:14:47.844Z,69.37
2023-04-01T07:14:57.835Z,69.68
2023-04-01T07:15:08.088Z,69.92
2023-04-01T07:15:18.236Z,70.52
2023-04-01T07:15:28.304Z,70.93
2023-04-01T07:15:38.460Z,70.69
2023-04-01T07:15:48.587Z,70.72
2023-04-01T07:15:58.717Z,70.83
2023-04-01T07:16:08.711Z,70.62
2023-04-01T07:16:18.936Z,70.72
2023-04-01T07:16:29.006Z,70.72
2023-04-01T07:16:39.189Z,71.13
2023-04-01T07:16:49.292Z,71.53
2023-04-01T07:16:59.402Z,71.53
2023-04-01T07:17:09.434Z,71.44
2023-04-01T07:17:19.521Z,71.44
2023-04-01T07:17:29.709Z,71.23
2023-04-01T07:17:39.891Z,71.33
2023-04-01T07:17:49.893Z,71.64
2023-04-01T07:18:00.038Z,71.73
2023-04-01T07:18:10.016Z,71.33
2023-04-01T07:18:20.236Z,71.26
2023-04-01T07:18:30.250Z,71.16
2023-04-01T07:18:40.352Z,71.47
2023-04-01T07:18:50.494Z,71.77
2023-04-01T07:19:01.348Z,71.97
2023-04-01T07:19:10.755Z,72.08
2023-04-01T07:19:20.742Z,72.04
2023-04-01T07:19:33.711Z,72.14
2023-04-01T07:19:41.180Z,72.24
2023-04-01T07:19:51.223Z,72.24
2023-04-01T07:20:01.345Z,72.24
2023-04-01T07:20:11.400Z,72.45
2023-04-01T07:20:21.488Z,72.45
2023-04-01T07:20:41.803Z,72.38
2023-04-01T07:20:51.814Z,72.45
2023-04-01T07:21:02.162Z,72.65
2023-04-01T07:21:12.182Z,72.55
2023-04-01T07:21:22.195Z,72.34
2023-04-01T07:21:33.451Z,72.14
2023-04-01T07:21:42.409Z,71.84
2023-04-01T07:21:52.546Z,71.70
2023-04-01T07:22:02.816Z,71.80
2023-04-01T07:22:12.806Z,71.70
2023-04-01T07:22:23.091Z,71.20
2023-04-01T07:22:33.155Z,71.09
2023-04-01T07:22:43.280Z,71.13
2023-04-01T07:22:53.432Z,71.44
2023-04-01T07:23:03.577Z,71.70
2023-04-01T07:23:14.530Z,71.70
2023-04-01T07:23:23.831Z,71.50
2023-04-01T07:23:33.858Z,71.40
2023-04-01T07:23:44.021Z,71.50
2023-04-01T07:23:54.264Z,71.60
2023-04-01T07:24:04.354Z,71.33
2023-04-01T07:24:24.482Z,71.84
2023-04-01T07:24:34.566Z,72.14
2023-04-01T07:24:44.775Z,72.55
2023-04-01T07:24:54.814Z,72.75
2023-04-01T07:25:05.023Z,72.55
2023-04-01T07:25:15.099Z,72.45
2023-04-01T07:25:25.253Z,72.24
2023-04-01T07:25:35.620Z,72.14
2023-04-01T07:25:45.573Z,71.94
2023-04-01T07:25:55.582Z,71.73
2023-04-01T07:26:05.675Z,71.73
2023-04-01T07:26:15.740Z,71.70
2023-04-01T07:26:26.002Z,71.84
2023-04-01T07:26:36.082Z,71.84
2023-04-01T07:26:47.163Z,71.70
2023-04-01T07:26:56.255Z,71.64
2023-04-01T07:27:06.415Z,71.64
2023-04-01T07:27:16.504Z,71.80
2023-04-01T07:27:26.643Z,72.04
2023-04-01T07:27:36.745Z,72.24
2023-04-01T07:27:46.938Z,72.24
2023-04-01T07:27:57.058Z,71.94
2023-04-01T07:28:07.244Z,71.20
2023-04-01T07:28:17.234Z,71.23
2023-04-01T07:28:27.492Z,71.33
2023-04-01T07:28:37.676Z,71.44
2023-04-01T07:28:47.611Z,71.50
2023-04-01T07:28:57.672Z,71.60
2023-04-01T07:29:07.906Z,71.80
2023-04-01T07:29:17.995Z,72.01
2023-04-01T07:29:28.047Z,72.11
2023-04-01T07:29:38.052Z,72.01
2023-04-01T07:29:48.372Z,72.11
2023-04-01T07:29:58.346Z,72.31
2023-04-01T07:30:08.570Z,72.31
2023-04-01T07:30:18.602Z,72.41
2023-04-01T07:30:28.860Z,72.41
2023-04-01T07:30:38.762Z,72.41
2023-04-01T07:30:48.907Z,72.75
2023-04-01T07:30:59.054Z,72.85
2023-04-01T07:31:09.220Z,72.85
2023-04-01T07:31:19.355Z,72.85
2023-04-01T07:31:29.369Z,73.05
2023-04-01T07:31:39.603Z,73.36
2023-04-01T07:31:49.632Z,73.36
2023-04-01T07:31:59.703Z,73.56
2023-04-01T07:32:09.878Z,73.46
2023-04-01T07:32:20.044Z,73.46
2023-04-01T07:32:30.025Z,73.36
2023-04-01T07:32:40.186Z,73.49
2023-04-01T07:32:50.407Z,73.80
2023-04-01T07:33:00.477Z,74.10
2023-04-01T07:33:10.559Z,74.51
2023-04-01T07:33:20.736Z,74.81
2023-04-01T07:33:30.858Z,75.01
2023-04-01T07:33:40.881Z,75.01
2023-04-01T07:33:51.081Z,75.25
2023-04-01T07:34:01.200Z,75.25
2023-04-01T07:34:11.352Z,75.46
